Green Isle, Minnesota
Current Conditions -  °F | °C
As of 11:14 AM on Friday 24 Oct 2014 (Local Time) from KGYL Reporting Station
Clear Clear  
Wind Chill: 60°   Ceiling: Unl
Heat Index: 60°   Visibility: 10mi
Dew Point: 53°   Wind: 7mph
Humidity: 76%   Direction: 200°SSW
Pressure: 29.85"   Gusts: NA
Location:  44.68°N, 94.01°W
Report Text: KGYL 241614Z AUTO 20006KT 10SM CLR 16/12 A2985 RMK AO2 T01580115
Loading
Personal Weather Stations






























Interactive Weather Map
Tropical Storm Tracking
New forecast layout! Learn more

10-Day Weather Forecast

Advertisements
Track Severe Weather on mobile